createdAt,value
2023-05-10T00:00:11.323Z,1.33
2023-05-10T00:02:44.175Z,2.80
2023-05-10T00:05:12.362Z,2.33
2023-05-10T00:07:40.445Z,4.43
2023-05-10T00:10:09.313Z,2.90
2023-05-10T00:12:39.992Z,2.10
2023-05-10T00:15:11.332Z,2.87
2023-05-10T00:17:43.281Z,2.80
2023-05-10T00:20:14.454Z,2.10
2023-05-10T00:22:42.760Z,2.87
2023-05-10T00:25:13.200Z,2.80
2023-05-10T00:27:41.364Z,2.30
2023-05-10T00:30:10.504Z,1.80
2023-05-10T00:32:41.006Z,2.60
2023-05-10T00:35:13.043Z,2.10
2023-05-10T00:37:43.887Z,2.93
2023-05-10T00:40:12.960Z,3.53
2023-05-10T00:42:42.179Z,2.83
2023-05-10T00:45:12.919Z,3.27
2023-05-10T00:47:42.128Z,2.40
2023-05-10T00:50:12.527Z,2.70
2023-05-10T00:52:40.966Z,2.17
2023-05-10T00:55:11.236Z,2.40
2023-05-10T00:57:41.808Z,2.30
2023-05-10T01:00:11.266Z,2.30
2023-05-10T01:02:39.481Z,2.50
2023-05-10T01:05:10.111Z,1.80
2023-05-10T01:07:39.597Z,3.30
2023-05-10T01:10:08.988Z,1.73
2023-05-10T01:12:42.380Z,1.80
2023-05-10T01:15:12.681Z,1.53
2023-05-10T01:17:44.587Z,2.67
2023-05-10T01:20:13.955Z,1.80
2023-05-10T01:23:23.238Z,2.37
2023-05-10T01:26:13.964Z,2.47
2023-05-10T01:29:05.717Z,3.53
2023-05-10T01:32:03.169Z,2.30
2023-05-10T01:34:37.757Z,2.37
2023-05-10T01:37:12.943Z,2.30
2023-05-10T01:39:47.748Z,1.80
2023-05-10T01:42:19.618Z,2.40
2023-05-10T01:44:56.614Z,2.17
2023-05-10T01:47:33.011Z,1.87
2023-05-10T01:50:07.084Z,1.90
2023-05-10T01:52:40.647Z,2.13
2023-05-10T01:55:15.405Z,1.80
2023-05-10T01:57:46.150Z,3.10
2023-05-10T02:00:17.329Z,2.07
2023-05-10T02:02:48.660Z,2.20
2023-05-10T02:05:19.440Z,1.80
2023-05-10T02:07:48.268Z,1.63
2023-05-10T02:10:17.907Z,3.57
2023-05-10T02:12:50.525Z,3.53
2023-05-10T02:15:28.633Z,2.47
2023-05-10T02:17:58.742Z,2.73
2023-05-10T02:20:33.393Z,2.00
2023-05-10T02:23:02.992Z,2.07
2023-05-10T02:25:33.677Z,2.30
2023-05-10T02:28:06.657Z,2.70
2023-05-10T02:30:36.832Z,2.80
2023-05-10T02:33:07.042Z,2.60
2023-05-10T02:35:37.293Z,3.20
2023-05-10T02:38:06.463Z,4.13
2023-05-10T02:40:35.332Z,3.83
2023-05-10T02:43:04.660Z,3.60
2023-05-10T02:45:39.875Z,3.80
2023-05-10T02:48:11.615Z,3.20
2023-05-10T02:50:45.885Z,3.87
2023-05-10T02:53:20.518Z,4.13
2023-05-10T02:55:52.781Z,3.70
2023-05-10T02:58:21.844Z,4.07
2023-05-10T03:00:52.325Z,3.83
2023-05-10T03:03:22.037Z,4.40
2023-05-10T03:05:54.770Z,4.27
2023-05-10T03:08:23.066Z,3.33
2023-05-10T03:11:03.827Z,4.27
2023-05-10T03:13:38.520Z,3.80
2023-05-10T03:16:14.311Z,4.00
2023-05-10T03:18:46.723Z,3.70
2023-05-10T03:21:20.578Z,3.77
2023-05-10T03:23:59.760Z,3.43
2023-05-10T03:26:31.074Z,3.23
2023-05-10T03:29:12.033Z,3.20
2023-05-10T03:31:40.731Z,3.33
2023-05-10T03:34:11.470Z,3.50
2023-05-10T03:36:43.066Z,3.17
2023-05-10T03:39:11.479Z,3.00
2023-05-10T03:41:39.717Z,3.10
2023-05-10T03:44:07.966Z,4.23
2023-05-10T03:46:38.348Z,3.83
2023-05-10T03:49:06.513Z,2.50
2023-05-10T03:51:34.671Z,2.60
2023-05-10T03:54:07.229Z,2.77
2023-05-10T03:56:35.390Z,3.37
2023-05-10T03:59:08.289Z,3.57
2023-05-10T04:01:38.811Z,5.03
2023-05-10T04:04:11.055Z,4.10
2023-05-10T04:06:40.493Z,4.63
2023-05-10T04:09:10.149Z,5.87
2023-05-10T04:11:38.260Z,4.07
2023-05-10T04:14:06.399Z,6.53
2023-05-10T04:16:34.592Z,5.17
2023-05-10T04:19:03.665Z,5.03
2023-05-10T04:21:31.846Z,5.53
2023-05-10T04:24:01.167Z,4.70
2023-05-10T04:26:32.950Z,6.03
2023-05-10T04:29:01.259Z,5.30
2023-05-10T04:31:29.403Z,5.20
2023-05-10T04:33:59.909Z,4.70
2023-05-10T04:36:30.272Z,6.03
2023-05-10T04:38:58.386Z,5.00
2023-05-10T04:41:26.910Z,5.00
2023-05-10T04:43:56.542Z,5.83
2023-05-10T04:46:24.826Z,5.67
2023-05-10T04:48:53.004Z,5.67
2023-05-10T04:51:21.479Z,6.03
2023-05-10T04:54:01.656Z,6.93
2023-05-10T04:56:35.822Z,5.87
2023-05-10T04:59:05.332Z,6.83
2023-05-10T05:01:33.551Z,6.70
2023-05-10T05:04:02.429Z,8.00
2023-05-10T05:06:32.911Z,8.00
2023-05-10T05:09:03.671Z,7.07
2023-05-10T05:11:34.143Z,6.73
2023-05-10T05:14:02.326Z,7.30
2023-05-10T05:16:33.066Z,8.77
2023-05-10T05:19:02.608Z,6.93
2023-05-10T05:21:33.681Z,7.13
2023-05-10T05:24:01.968Z,6.67
2023-05-10T05:26:30.112Z,6.40
2023-05-10T05:28:58.257Z,8.53
2023-05-10T05:31:26.459Z,8.13
2023-05-10T05:33:59.117Z,8.83
2023-05-10T05:36:27.206Z,7.97
2023-05-10T05:38:56.054Z,7.63
2023-05-10T05:41:26.991Z,9.17
2023-05-10T05:43:57.644Z,7.17
2023-05-10T05:46:25.830Z,7.73
2023-05-10T05:48:54.008Z,9.53
2023-05-10T05:51:23.497Z,11.10
2023-05-10T05:53:51.702Z,9.43
2023-05-10T05:56:25.403Z,9.17
2023-05-10T05:58:53.909Z,9.83
2023-05-10T06:01:22.478Z,9.00
2023-05-10T06:03:53.411Z,10.23
2023-05-10T06:06:25.630Z,9.07
2023-05-10T06:08:53.771Z,11.20
2023-05-10T06:11:22.086Z,9.23
2023-05-10T06:13:50.273Z,12.27
2023-05-10T06:16:18.805Z,16.33
2023-05-10T06:18:49.177Z,15.60
2023-05-10T06:21:19.660Z,15.60
2023-05-10T06:23:49.149Z,14.37
2023-05-10T06:26:17.319Z,18.67
2023-05-10T06:28:45.422Z,20.53
2023-05-10T06:31:16.187Z,20.87
2023-05-10T06:33:44.381Z,18.80
2023-05-10T06:36:12.517Z,20.33
2023-05-10T06:38:40.627Z,20.63
2023-05-10T06:41:10.206Z,21.53
2023-05-10T06:43:40.901Z,23.20
2023-05-10T06:46:09.272Z,24.90
2023-05-10T06:48:37.363Z,27.27
2023-05-10T06:51:08.250Z,27.33
2023-05-10T06:53:36.441Z,27.13
2023-05-10T06:56:04.903Z,26.13
2023-05-10T06:58:36.944Z,32.53
2023-05-10T07:01:06.121Z,30.40
2023-05-10T07:03:34.613Z,31.63
2023-05-10T07:06:04.794Z,31.83
2023-05-10T07:08:35.677Z,31.30
2023-05-10T07:11:05.080Z,37.30
2023-05-10T07:13:33.809Z,36.60
2023-05-10T07:16:04.032Z,32.20
2023-05-10T07:18:32.304Z,27.47
2023-05-10T07:21:00.576Z,31.27
2023-05-10T07:23:28.666Z,33.27
2023-05-10T07:25:58.332Z,31.83
2023-05-10T07:28:26.712Z,31.97
2023-05-10T07:30:54.868Z,32.43
2023-05-10T07:33:26.640Z,34.90
2023-05-10T07:35:54.775Z,30.27
2023-05-10T07:38:25.428Z,32.53
2023-05-10T07:40:53.652Z,32.63
2023-05-10T07:43:21.885Z,30.80
2023-05-10T07:45:50.111Z,34.13
2023-05-10T07:48:21.324Z,31.33
2023-05-10T07:50:50.847Z,29.50
2023-05-10T07:53:21.730Z,30.33
2023-05-10T07:55:52.710Z,31.37
2023-05-10T07:58:20.862Z,31.37
2023-05-10T08:00:50.178Z,30.17
2023-05-10T08:03:18.532Z,30.40
2023-05-10T08:05:46.813Z,32.83
2023-05-10T08:08:18.996Z,31.93
2023-05-10T08:10:49.510Z,32.73
2023-05-10T08:13:17.629Z,30.33
2023-05-10T08:15:45.757Z,32.87
2023-05-10T08:18:16.936Z,29.20
2023-05-10T08:20:45.145Z,29.20
2023-05-10T08:23:14.756Z,30.33
2023-05-10T08:25:44.285Z,29.57
2023-05-10T08:28:12.408Z,27.33
2023-05-10T08:30:42.830Z,27.63
2023-05-10T08:33:11.148Z,29.37
2023-05-10T08:35:39.393Z,26.37
2023-05-10T08:38:07.521Z,24.97
2023-05-10T08:40:37.094Z,22.50
2023-05-10T08:43:08.039Z,25.27
2023-05-10T08:45:39.598Z,24.73
2023-05-10T08:48:11.339Z,26.27
2023-05-10T08:50:41.455Z,23.97
2023-05-10T08:53:12.885Z,25.03
2023-05-10T08:55:43.867Z,23.43
2023-05-10T08:58:16.377Z,26.60
2023-05-10T09:00:45.048Z,25.77
2023-05-10T09:03:16.640Z,23.73
2023-05-10T09:05:47.310Z,24.43
2023-05-10T09:08:19.192Z,27.80
2023-05-10T09:10:48.393Z,29.23
2023-05-10T09:13:19.099Z,26.17
2023-05-10T09:15:48.010Z,26.77
2023-05-10T09:18:16.495Z,27.00
2023-05-10T09:20:44.805Z,27.70
2023-05-10T09:23:12.923Z,24.60
2023-05-10T09:25:43.112Z,27.43
2023-05-10T09:28:11.872Z,25.70
2023-05-10T09:30:44.018Z,26.23
2023-05-10T09:33:12.159Z,22.27
2023-05-10T09:35:43.461Z,24.70
2023-05-10T09:38:11.757Z,25.30
2023-05-10T09:40:40.064Z,26.27
2023-05-10T09:43:11.851Z,27.60
2023-05-10T09:45:40.020Z,26.20
2023-05-10T09:48:11.958Z,24.73
2023-05-10T09:50:40.149Z,21.90
2023-05-10T09:53:09.894Z,23.53
2023-05-10T09:55:42.300Z,22.50
2023-05-10T09:58:13.310Z,19.20
2023-05-10T10:00:45.035Z,21.57
2023-05-10T10:03:18.526Z,25.27
2023-05-10T10:05:50.131Z,18.87
2023-05-10T10:08:18.689Z,19.10
2023-05-10T10:10:52.160Z,20.03
2023-05-10T10:13:22.821Z,21.37
2023-05-10T10:15:56.379Z,22.90
2023-05-10T10:18:28.114Z,21.47
2023-05-10T10:20:59.113Z,18.93
2023-05-10T10:23:27.941Z,19.57
2023-05-10T10:25:57.605Z,24.33
2023-05-10T10:28:34.485Z,17.83
2023-05-10T10:31:19.583Z,21.00
2023-05-10T10:34:01.402Z,17.90
2023-05-10T10:36:32.273Z,22.00
2023-05-10T10:39:01.714Z,18.23
2023-05-10T10:41:34.722Z,15.70
2023-05-10T10:44:37.604Z,18.43
2023-05-10T10:47:30.700Z,18.43
2023-05-10T10:50:08.180Z,15.37
2023-05-10T10:52:39.236Z,15.73
2023-05-10T10:55:11.157Z,17.90
2023-05-10T10:57:51.034Z,14.90
2023-05-10T11:00:27.593Z,14.90
2023-05-10T11:03:05.329Z,14.57
2023-05-10T11:05:41.291Z,15.67
2023-05-10T11:08:12.568Z,14.23
2023-05-10T11:10:41.536Z,15.20
2023-05-10T11:13:12.785Z,13.53
2023-05-10T11:15:42.128Z,13.13
2023-05-10T11:18:21.427Z,13.30
2023-05-10T11:20:55.074Z,16.20
2023-05-10T11:23:23.710Z,16.33
2023-05-10T11:25:54.998Z,15.27
2023-05-10T11:28:25.551Z,13.50
2023-05-10T11:30:57.165Z,14.10
2023-05-10T11:33:25.395Z,14.03
2023-05-10T11:35:54.922Z,18.20
2023-05-10T11:38:25.370Z,16.30
2023-05-10T11:40:55.000Z,13.47
2023-05-10T11:43:29.173Z,18.60
2023-05-10T11:45:57.463Z,15.03
2023-05-10T11:48:29.116Z,14.23
2023-05-10T11:51:03.054Z,14.63
2023-05-10T11:53:34.769Z,16.53
2023-05-10T11:56:06.516Z,15.37
2023-05-10T11:58:35.379Z,15.63
2023-05-10T12:01:07.264Z,17.30
2023-05-10T12:03:36.243Z,15.77
2023-05-10T12:06:09.741Z,17.63
2023-05-10T12:08:38.302Z,13.50
2023-05-10T12:11:08.789Z,14.33
2023-05-10T12:13:41.314Z,13.67
2023-05-10T12:16:16.684Z,14.03
2023-05-10T12:18:47.735Z,14.40
2023-05-10T12:21:21.341Z,13.80
2023-05-10T12:23:50.516Z,14.90
2023-05-10T12:26:18.899Z,12.60
2023-05-10T12:28:49.609Z,12.90
2023-05-10T12:31:18.039Z,14.80
2023-05-10T12:33:48.294Z,14.57
2023-05-10T12:36:18.990Z,14.43
2023-05-10T12:38:52.068Z,13.97
2023-05-10T12:41:22.331Z,15.70
2023-05-10T12:43:50.524Z,15.53
2023-05-10T12:46:19.599Z,13.27
2023-05-10T12:48:57.557Z,12.77
2023-05-10T12:51:31.735Z,14.53
2023-05-10T12:54:04.371Z,12.63
2023-05-10T12:56:32.691Z,12.43
2023-05-10T12:59:00.970Z,13.70
2023-05-10T13:01:29.240Z,13.00
2023-05-10T13:03:57.679Z,14.03
2023-05-10T13:06:25.947Z,12.73
2023-05-10T13:08:56.461Z,14.03
2023-05-10T13:11:28.555Z,14.40
2023-05-10T13:13:56.952Z,11.30
2023-05-10T13:16:25.172Z,15.00
2023-05-10T13:18:53.571Z,14.00
2023-05-10T13:21:27.356Z,12.80
2023-05-10T13:23:57.009Z,12.53
2023-05-10T13:26:37.639Z,10.53
2023-05-10T13:29:13.810Z,12.37
2023-05-10T13:31:49.043Z,11.40
2023-05-10T13:34:21.974Z,11.40
2023-05-10T13:37:03.590Z,14.17
2023-05-10T13:39:35.868Z,14.27
2023-05-10T13:42:08.742Z,13.60
2023-05-10T13:44:37.101Z,10.77
2023-05-10T13:47:07.752Z,14.30
2023-05-10T13:49:35.961Z,12.67
2023-05-10T13:52:07.712Z,13.70
2023-05-10T13:54:39.285Z,15.33
2023-05-10T13:57:08.954Z,15.57
2023-05-10T13:59:39.431Z,14.07
2023-05-10T14:02:08.208Z,15.87
2023-05-10T14:04:38.743Z,15.20
2023-05-10T14:07:07.021Z,15.07
2023-05-10T14:09:35.214Z,13.13
2023-05-10T14:12:06.123Z,14.23
2023-05-10T14:14:35.666Z,11.70
2023-05-10T14:17:03.824Z,12.70
2023-05-10T14:19:33.582Z,13.57
2023-05-10T14:22:01.875Z,11.97
2023-05-10T14:24:32.690Z,12.17
2023-05-10T14:27:03.270Z,13.50
2023-05-10T14:29:35.089Z,13.17
2023-05-10T14:32:03.980Z,11.90
2023-05-10T14:34:32.177Z,13.47
2023-05-10T14:37:02.692Z,14.53
2023-05-10T14:39:34.161Z,12.13
2023-05-10T14:42:03.566Z,13.70
2023-05-10T14:44:31.722Z,13.93
2023-05-10T14:47:03.445Z,18.07
2023-05-10T14:49:33.590Z,11.77
2023-05-10T14:52:01.732Z,9.73
2023-05-10T14:54:34.373Z,13.53
2023-05-10T14:57:05.023Z,12.37
2023-05-10T14:59:33.241Z,14.67
2023-05-10T15:02:04.135Z,13.07
2023-05-10T15:04:35.153Z,14.43
2023-05-10T15:07:04.171Z,12.60
2023-05-10T15:09:32.376Z,13.07
2023-05-10T15:12:00.585Z,14.93
2023-05-10T15:14:28.853Z,13.43
2023-05-10T15:16:57.026Z,13.50
2023-05-10T15:19:29.745Z,13.33
2023-05-10T15:21:58.080Z,11.97
2023-05-10T15:24:26.293Z,12.83
2023-05-10T15:26:56.988Z,13.13
2023-05-10T15:29:25.180Z,10.17
2023-05-10T15:31:55.474Z,16.20
2023-05-10T15:34:23.701Z,12.07
2023-05-10T15:36:55.561Z,9.93
2023-05-10T15:39:26.057Z,9.80
2023-05-10T15:41:54.192Z,10.00
2023-05-10T15:44:23.286Z,12.00
2023-05-10T15:46:53.937Z,9.13
2023-05-10T15:49:22.052Z,8.20
2023-05-10T15:51:52.474Z,8.03
2023-05-10T15:54:25.087Z,9.47
2023-05-10T15:56:54.922Z,8.60
2023-05-10T15:59:25.622Z,9.10
2023-05-10T16:01:56.148Z,8.33
2023-05-10T16:04:27.185Z,10.00
2023-05-10T16:06:55.364Z,7.93
2023-05-10T16:09:24.852Z,8.97
2023-05-10T16:11:53.024Z,8.60
2023-05-10T16:14:22.077Z,9.90
2023-05-10T16:16:50.256Z,7.47
2023-05-10T16:19:21.126Z,8.57
2023-05-10T16:21:49.377Z,7.87
2023-05-10T16:24:19.815Z,8.87
2023-05-10T16:26:49.327Z,5.97
2023-05-10T16:29:17.519Z,7.60
2023-05-10T16:31:46.347Z,7.87
2023-05-10T16:34:14.490Z,7.33
2023-05-10T16:36:42.874Z,7.10
2023-05-10T16:39:11.267Z,6.27
2023-05-10T16:41:41.561Z,6.43
2023-05-10T16:44:15.311Z,7.23
2023-05-10T16:46:46.125Z,6.00
2023-05-10T16:49:21.442Z,5.67
2023-05-10T16:51:55.694Z,6.10
2023-05-10T16:54:32.280Z,7.77
2023-05-10T16:57:04.917Z,7.07
2023-05-10T16:59:36.960Z,6.93
2023-05-10T17:02:06.750Z,7.90
2023-05-10T17:04:41.556Z,5.10
2023-05-10T17:07:12.268Z,6.20
2023-05-10T17:09:46.117Z,4.90
2023-05-10T17:12:16.470Z,6.03
2023-05-10T17:14:47.825Z,5.70
2023-05-10T17:17:17.764Z,6.03
2023-05-10T17:19:49.189Z,5.00
2023-05-10T17:22:19.153Z,5.07
2023-05-10T17:24:54.322Z,4.80
2023-05-10T17:27:33.352Z,5.10
2023-05-10T17:30:18.723Z,5.83
2023-05-10T17:32:59.535Z,5.37
2023-05-10T17:35:51.159Z,5.20
2023-05-10T17:38:34.871Z,4.27
2023-05-10T17:41:22.550Z,4.47
2023-05-10T17:43:57.522Z,3.93
2023-05-10T17:46:46.764Z,5.60
2023-05-10T17:49:17.585Z,5.07
2023-05-10T17:51:48.395Z,4.17
2023-05-10T17:54:16.672Z,5.13
2023-05-10T17:56:44.922Z,4.97
2023-05-10T17:59:15.337Z,3.50
2023-05-10T18:01:44.918Z,4.13
2023-05-10T18:04:13.120Z,4.60
2023-05-10T18:06:41.715Z,5.27
2023-05-10T18:09:09.915Z,5.80
2023-05-10T18:11:39.365Z,4.53
2023-05-10T18:14:07.486Z,4.37
2023-05-10T18:16:38.106Z,4.27
2023-05-10T18:19:07.748Z,4.83
2023-05-10T18:21:35.954Z,4.63
2023-05-10T18:24:06.641Z,4.60
2023-05-10T18:26:34.867Z,4.57
2023-05-10T18:29:03.099Z,4.13
2023-05-10T18:31:31.291Z,4.10
2023-05-10T18:34:01.942Z,3.97
2023-05-10T18:36:32.325Z,4.20
2023-05-10T18:39:06.724Z,4.40
2023-05-10T18:41:34.883Z,4.23
2023-05-10T18:44:03.095Z,3.80
2023-05-10T18:46:31.401Z,3.70
2023-05-10T18:48:59.616Z,4.30
2023-05-10T18:51:34.821Z,4.00
2023-05-10T18:54:03.046Z,4.70
2023-05-10T18:56:31.452Z,4.20
2023-05-10T18:58:59.574Z,4.07
2023-05-10T19:01:27.774Z,3.90
2023-05-10T19:03:56.078Z,3.70
2023-05-10T19:06:26.524Z,3.53
2023-05-10T19:08:56.067Z,4.47
2023-05-10T19:11:24.310Z,3.67
2023-05-10T19:13:52.517Z,3.63
2023-05-10T19:16:23.319Z,5.60
2023-05-10T19:18:56.585Z,4.40
2023-05-10T19:21:24.842Z,4.50
2023-05-10T19:23:57.754Z,4.53
2023-05-10T19:26:25.949Z,4.87
2023-05-10T19:28:57.605Z,4.67
2023-05-10T19:31:25.818Z,4.33
2023-05-10T19:33:54.055Z,5.10
2023-05-10T19:36:24.552Z,5.43
2023-05-10T19:38:57.116Z,5.23
2023-05-10T19:41:25.713Z,5.30
2023-05-10T19:43:56.369Z,4.40
2023-05-10T19:46:24.604Z,5.47
2023-05-10T19:48:53.128Z,4.83
2023-05-10T19:51:21.293Z,3.93
2023-05-10T19:53:49.499Z,4.43
2023-05-10T19:56:19.521Z,4.90
2023-05-10T19:58:48.228Z,6.40
2023-05-10T20:01:18.957Z,4.33
2023-05-10T20:03:47.260Z,4.80
2023-05-10T20:06:15.462Z,4.57
2023-05-10T20:08:43.612Z,4.60
2023-05-10T20:11:12.113Z,5.50
2023-05-10T20:13:41.572Z,5.80
2023-05-10T20:16:09.859Z,4.63
2023-05-10T20:18:38.577Z,4.20
2023-05-10T20:21:06.941Z,5.60
2023-05-10T20:23:35.101Z,6.90
2023-05-10T20:26:03.643Z,5.27
2023-05-10T20:28:31.846Z,5.70
2023-05-10T20:31:02.036Z,6.47
2023-05-10T20:33:30.472Z,5.30
2023-05-10T20:36:00.643Z,5.67
2023-05-10T20:38:28.817Z,5.87
2023-05-10T20:40:57.335Z,6.57
2023-05-10T20:43:25.636Z,7.10
2023-05-10T20:45:54.170Z,6.13
2023-05-10T20:48:25.948Z,5.77
2023-05-10T20:50:54.082Z,5.67
2023-05-10T20:53:22.299Z,6.57
2023-05-10T20:55:52.858Z,6.67
2023-05-10T20:58:21.018Z,6.67
2023-05-10T21:00:49.269Z,6.13
2023-05-10T21:03:17.386Z,7.53
2023-05-10T21:05:46.934Z,7.40
2023-05-10T21:08:17.611Z,6.17
2023-05-10T21:10:48.220Z,6.20
2023-05-10T21:13:16.658Z,5.77
2023-05-10T21:15:47.432Z,5.53
2023-05-10T21:18:15.626Z,6.13
2023-05-10T21:20:44.271Z,4.80
2023-05-10T21:23:13.779Z,4.90
2023-05-10T21:25:41.894Z,6.27
2023-05-10T21:28:10.121Z,6.07
2023-05-10T21:30:38.531Z,4.87
2023-05-10T21:33:07.103Z,6.40
2023-05-10T21:35:35.287Z,6.17
2023-05-10T21:38:06.212Z,5.70
2023-05-10T21:40:40.172Z,5.07
2023-05-10T21:43:08.600Z,6.50
2023-05-10T21:45:36.731Z,4.97
2023-05-10T21:48:05.938Z,5.93
2023-05-10T21:50:37.344Z,7.50
2023-05-10T21:53:05.565Z,8.23
2023-05-10T21:55:34.244Z,6.13
2023-05-10T21:58:06.704Z,7.80
2023-05-10T22:00:35.587Z,6.60
2023-05-10T22:03:03.859Z,6.90
2023-05-10T22:05:34.405Z,7.33
2023-05-10T22:08:02.599Z,7.67
2023-05-10T22:10:31.000Z,6.93
2023-05-10T22:12:59.710Z,6.30
2023-05-10T22:15:29.224Z,6.07
2023-05-10T22:17:57.476Z,6.00
2023-05-10T22:20:25.823Z,5.97
2023-05-10T22:22:56.052Z,6.00
2023-05-10T22:25:26.363Z,5.60
2023-05-10T22:27:54.554Z,7.10
2023-05-10T22:30:22.930Z,6.50
2023-05-10T22:32:54.717Z,6.17
2023-05-10T22:35:23.438Z,6.27
2023-05-10T22:37:51.624Z,6.83
2023-05-10T22:40:19.944Z,7.43
2023-05-10T22:42:48.249Z,5.97
2023-05-10T22:45:16.750Z,6.67
2023-05-10T22:47:48.290Z,6.67
2023-05-10T22:50:20.595Z,6.90
2023-05-10T22:52:51.210Z,6.17
2023-05-10T22:55:19.317Z,5.80
2023-05-10T22:57:47.449Z,5.60
2023-05-10T23:00:16.846Z,7.10
2023-05-10T23:02:47.325Z,6.63
2023-05-10T23:05:18.030Z,6.57
2023-05-10T23:07:53.214Z,6.53
2023-05-10T23:10:21.584Z,6.27
2023-05-10T23:12:49.765Z,7.10
2023-05-10T23:15:20.050Z,7.00
2023-05-10T23:17:48.239Z,7.70
2023-05-10T23:20:18.935Z,7.60
2023-05-10T23:22:56.287Z,6.67
2023-05-10T23:25:24.378Z,7.30
2023-05-10T23:27:52.456Z,6.03
2023-05-10T23:30:20.735Z,7.13
2023-05-10T23:32:48.876Z,8.13
2023-05-10T23:35:19.509Z,8.93
2023-05-10T23:37:49.864Z,7.33
2023-05-10T23:40:19.814Z,7.00
2023-05-10T23:42:48.165Z,8.37
2023-05-10T23:45:16.460Z,8.17
2023-05-10T23:47:46.721Z,9.37
2023-05-10T23:50:14.949Z,7.93
2023-05-10T23:52:43.210Z,9.30
2023-05-10T23:55:13.494Z,7.73
2023-05-10T23:57:43.713Z,7.70
